Terminal Aerodrome Forecast
Issued by NWS Sterling, VA

Home | Current Version | Previous Version | Text Only | Print | Product List | Glossary On
Versions: 1 2 3 4 5 6 7 8 9 10 11 12 13 14 15 16 17 18 19 20
000
FTUS41 KLWX 260542
TAFBWI
TAF
KBWI 260542Z 2606/2712 VRB03KT P6SM FEW040 SCT120
     FM260800 06004KT P6SM BKN025 BKN070
     FM261000 04005KT P6SM BKN008 BKN040
     FM261500 05006KT P6SM BKN015 BKN060
     FM261800 06005KT P6SM FEW050 SCT200=

USA.gov is the U.S. government's official web portal to all federal, state and local government web resources and services.